sensor_id;sensor_type;location;lat;lon;timestamp;pressure;altitude;pressure_sealevel;temperature;humidity
53550;BME280;67273;52.914;-0.982;2023-04-26T00:02:21;101624.69;;;18.14;41.66
53550;BME280;67273;52.914;-0.982;2023-04-26T00:04:50;101619.25;;;18.14;41.67
53550;BME280;67273;52.914;-0.982;2023-04-26T00:07:17;101610.22;;;18.14;41.67
53550;BME280;67273;52.914;-0.982;2023-04-26T00:09:42;101614.00;;;18.13;41.61
53550;BME280;67273;52.914;-0.982;2023-04-26T00:12:09;101612.13;;;18.13;41.76
53550;BME280;67273;52.914;-0.982;2023-04-26T00:14:36;101619.66;;;18.11;41.78
53550;BME280;67273;52.914;-0.982;2023-04-26T00:17:02;101611.50;;;18.11;41.66
53550;BME280;67273;52.914;-0.982;2023-04-26T00:19:28;101617.13;;;18.10;41.59
53550;BME280;67273;52.914;-0.982;2023-04-26T00:21:54;101607.09;;;18.10;41.56
53550;BME280;67273;52.914;-0.982;2023-04-26T00:24:21;101612.53;;;18.10;41.60
53550;BME280;67273;52.914;-0.982;2023-04-26T00:26:47;101610.06;;;18.09;41.72
53550;BME280;67273;52.914;-0.982;2023-04-26T00:29:13;101601.88;;;18.09;41.49
53550;BME280;67273;52.914;-0.982;2023-04-26T00:31:38;101585.78;;;18.07;41.49
53550;BME280;67273;52.914;-0.982;2023-04-26T00:34:04;101589.31;;;18.08;41.67
53550;BME280;67273;52.914;-0.982;2023-04-26T00:36:30;101596.66;;;18.07;41.56
53550;BME280;67273;52.914;-0.982;2023-04-26T00:38:57;101595.81;;;18.07;41.73
53550;BME280;67273;52.914;-0.982;2023-04-26T00:41:24;101594.97;;;18.06;41.59
53550;BME280;67273;52.914;-0.982;2023-04-26T00:43:51;101589.53;;;18.06;41.76
53550;BME280;67273;52.914;-0.982;2023-04-26T00:46:17;101588.72;;;18.05;41.53
53550;BME280;67273;52.914;-0.982;2023-04-26T00:48:43;101584.31;;;18.04;41.57
53550;BME280;67273;52.914;-0.982;2023-04-26T00:51:09;101583.47;;;18.04;41.74
53550;BME280;67273;52.914;-0.982;2023-04-26T00:53:35;101587.03;;;18.04;41.70
53550;BME280;67273;52.914;-0.982;2023-04-26T00:56:01;101590.81;;;18.03;41.62
53550;BME280;67273;52.914;-0.982;2023-04-26T00:58:28;101583.69;;;18.02;41.56
53550;BME280;67273;52.914;-0.982;2023-04-26T01:00:55;101582.03;;;18.01;41.67
53550;BME280;67273;52.914;-0.982;2023-04-26T01:03:21;101579.31;;;18.01;41.60
53550;BME280;67273;52.914;-0.982;2023-04-26T01:05:47;101574.91;;;18.00;41.58
53550;BME280;67273;52.914;-0.982;2023-04-26T01:08:13;101568.66;;;18.00;41.59
53550;BME280;67273;52.914;-0.982;2023-04-26T01:10:41;101569.47;;;18.00;41.48
53550;BME280;67273;52.914;-0.982;2023-04-26T01:13:07;101568.84;;;17.98;41.70
53550;BME280;67273;52.914;-0.982;2023-04-26T01:15:35;101567.78;;;17.99;41.49
53550;BME280;67273;52.914;-0.982;2023-04-26T01:18:01;101566.13;;;17.98;41.54
53550;BME280;67273;52.914;-0.982;2023-04-26T01:20:27;101568.84;;;17.98;41.55
53550;BME280;67273;52.914;-0.982;2023-04-26T01:22:54;101559.88;;;17.98;41.65
53550;BME280;67273;52.914;-0.982;2023-04-26T01:25:20;101564.44;;;17.97;41.65
53550;BME280;67273;52.914;-0.982;2023-04-26T01:27:46;101564.44;;;17.97;41.51
53550;BME280;67273;52.914;-0.982;2023-04-26T01:30:12;101552.75;;;17.97;41.50
53550;BME280;67273;52.914;-0.982;2023-04-26T01:32:38;101554.66;;;17.96;41.49
53550;BME280;67273;52.914;-0.982;2023-04-26T01:35:04;101547.53;;;17.95;41.60
53550;BME280;67273;52.914;-0.982;2023-04-26T01:37:30;101550.25;;;17.95;41.63
53550;BME280;67273;52.914;-0.982;2023-04-26T01:39:59;101545.84;;;17.94;41.58
53550;BME280;67273;52.914;-0.982;2023-04-26T01:42:27;101550.44;;;17.94;41.61
53550;BME280;67273;52.914;-0.982;2023-04-26T01:44:53;101546.91;;;17.93;41.43
53550;BME280;67273;52.914;-0.982;2023-04-26T01:47:19;101543.34;;;17.93;41.52
53550;BME280;67273;52.914;-0.982;2023-04-26T01:49:45;101535.19;;;17.93;41.65
53550;BME280;67273;52.914;-0.982;2023-04-26T01:52:12;101536.25;;;17.92;41.62
53550;BME280;67273;52.914;-0.982;2023-04-26T01:54:40;101538.13;;;17.91;41.56
53550;BME280;67273;52.914;-0.982;2023-04-26T01:57:08;101531.84;;;17.91;41.59
53550;BME280;67273;52.914;-0.982;2023-04-26T01:59:37;101531.84;;;17.91;41.44
53550;BME280;67273;52.914;-0.982;2023-04-26T02:02:04;101531.00;;;17.90;41.46
53550;BME280;67273;52.914;-0.982;2023-04-26T02:04:31;101526.63;;;17.89;41.53
53550;BME280;67273;52.914;-0.982;2023-04-26T02:06:56;101534.78;;;17.89;41.65
53550;BME280;67273;52.914;-0.982;2023-04-26T02:09:24;101537.50;;;17.89;41.55
53550;BME280;67273;52.914;-0.982;2023-04-26T02:11:52;101538.53;;;17.88;41.43
53550;BME280;67273;52.914;-0.982;2023-04-26T02:14:20;101525.16;;;17.86;41.52
53550;BME280;67273;52.914;-0.982;2023-04-26T02:16:49;101528.72;;;17.87;41.66
53550;BME280;67273;52.914;-0.982;2023-04-26T02:19:18;101526.00;;;17.87;41.58
53550;BME280;67273;52.914;-0.982;2023-04-26T02:21:51;101520.78;;;17.85;41.62
53550;BME280;67273;52.914;-0.982;2023-04-26T02:24:17;101517.19;;;17.85;41.63
53550;BME280;67273;52.914;-0.982;2023-04-26T02:26:44;101519.06;;;17.84;41.33
53550;BME280;67273;52.914;-0.982;2023-04-26T02:29:10;101522.63;;;17.85;41.65
53550;BME280;67273;52.914;-0.982;2023-04-26T02:31:40;101520.97;;;17.84;41.69
53550;BME280;67273;52.914;-0.982;2023-04-26T02:34:07;101516.56;;;17.83;41.68
53550;BME280;67273;52.914;-0.982;2023-04-26T02:36:33;101526.41;;;17.84;41.60
53550;BME280;67273;52.914;-0.982;2023-04-26T02:39:03;101521.19;;;17.82;41.61
53550;BME280;67273;52.914;-0.982;2023-04-26T02:41:32;101529.34;;;17.82;41.62
53550;BME280;67273;52.914;-0.982;2023-04-26T02:44:02;101524.94;;;17.81;41.62
53550;BME280;67273;52.914;-0.982;2023-04-26T02:46:29;101531.22;;;17.82;41.55
53550;BME280;67273;52.914;-0.982;2023-04-26T02:48:56;101526.81;;;17.81;41.56
53550;BME280;67273;52.914;-0.982;2023-04-26T02:51:25;101522.41;;;17.80;41.69
53550;BME280;67273;52.914;-0.982;2023-04-26T02:53:53;101523.47;;;17.79;41.68
53550;BME280;67273;52.914;-0.982;2023-04-26T02:56:22;101528.91;;;17.79;41.62
53550;BME280;67273;52.914;-0.982;2023-04-26T02:58:49;101519.94;;;17.78;41.65
53550;BME280;67273;52.914;-0.982;2023-04-26T03:01:18;101519.09;;;17.78;41.59
53550;BME280;67273;52.914;-0.982;2023-04-26T03:03:45;101532.66;;;17.78;41.47
53550;BME280;67273;52.914;-0.982;2023-04-26T03:06:15;101524.72;;;17.76;41.60
53550;BME280;67273;52.914;-0.982;2023-04-26T03:08:44;101520.16;;;17.77;41.67
53550;BME280;67273;52.914;-0.982;2023-04-26T03:11:10;101520.16;;;17.77;41.64
53550;BME280;67273;52.914;-0.982;2023-04-26T03:13:36;101523.91;;;17.76;41.69
53550;BME280;67273;52.914;-0.982;2023-04-26T03:16:05;101513.03;;;17.76;41.54
53550;BME280;67273;52.914;-0.982;2023-04-26T03:18:34;101510.53;;;17.74;41.65
53550;BME280;67273;52.914;-0.982;2023-04-26T03:21:04;101513.25;;;17.74;41.80
53550;BME280;67273;52.914;-0.982;2023-04-26T03:23:34;101517.84;;;17.74;41.66
53550;BME280;67273;52.914;-0.982;2023-04-26T03:26:00;101503.44;;;17.73;41.79
53550;BME280;67273;52.914;-0.982;2023-04-26T03:28:26;101502.56;;;17.73;41.63
53550;BME280;67273;52.914;-0.982;2023-04-26T03:30:54;101502.56;;;17.73;41.51
53550;BME280;67273;52.914;-0.982;2023-04-26T03:33:21;101498.19;;;17.72;41.66
53550;BME280;67273;52.914;-0.982;2023-04-26T03:35:49;101495.50;;;17.72;41.55
53550;BME280;67273;52.914;-0.982;2023-04-26T03:38:17;101500.91;;;17.72;41.60
53550;BME280;67273;52.914;-0.982;2023-04-26T03:40:47;101504.69;;;17.71;41.79
53550;BME280;67273;52.914;-0.982;2023-04-26T03:43:18;101503.84;;;17.70;41.71
53550;BME280;67273;52.914;-0.982;2023-04-26T03:45:46;101511.16;;;17.70;41.61
53550;BME280;67273;52.914;-0.982;2023-04-26T03:48:15;101508.47;;;17.70;41.63
53550;BME280;67273;52.914;-0.982;2023-04-26T03:50:47;101514.94;;;17.68;41.71
53550;BME280;67273;52.914;-0.982;2023-04-26T03:53:19;101505.09;;;17.67;41.43
53550;BME280;67273;52.914;-0.982;2023-04-26T03:55:47;101513.25;;;17.67;41.52
53550;BME280;67273;52.914;-0.982;2023-04-26T03:58:14;101511.59;;;17.66;41.81
53550;BME280;67273;52.914;-0.982;2023-04-26T04:00:43;101511.38;;;17.68;41.81
53550;BME280;67273;52.914;-0.982;2023-04-26T04:03:10;101509.69;;;17.67;41.80
53550;BME280;67273;52.914;-0.982;2023-04-26T04:05:38;101501.75;;;17.65;41.68
53550;BME280;67273;52.914;-0.982;2023-04-26T04:08:06;101500.09;;;17.64;41.47
53550;BME280;67273;52.914;-0.982;2023-04-26T04:10:32;101500.09;;;17.64;41.58
53550;BME280;67273;52.914;-0.982;2023-04-26T04:12:59;101494.66;;;17.64;41.72
53550;BME280;67273;52.914;-0.982;2023-04-26T04:15:25;101506.56;;;17.63;41.72
53550;BME280;67273;52.914;-0.982;2023-04-26T04:17:53;101496.75;;;17.62;41.65
53550;BME280;67273;52.914;-0.982;2023-04-26T04:20:20;101500.53;;;17.61;41.68
53550;BME280;67273;52.914;-0.982;2023-04-26T04:22:46;101499.69;;;17.61;41.60
53550;BME280;67273;52.914;-0.982;2023-04-26T04:25:12;101489.66;;;17.61;41.70
53550;BME280;67273;52.914;-0.982;2023-04-26T04:27:41;101496.13;;;17.60;41.75
53550;BME280;67273;52.914;-0.982;2023-04-26T04:30:09;101490.69;;;17.60;41.84
53550;BME280;67273;52.914;-0.982;2023-04-26T04:32:36;101492.56;;;17.60;41.85
53550;BME280;67273;52.914;-0.982;2023-04-26T04:35:04;101480.88;;;17.59;41.77
53550;BME280;67273;52.914;-0.982;2023-04-26T04:37:30;101485.47;;;17.59;41.54
53550;BME280;67273;52.914;-0.982;2023-04-26T04:39:58;101480.88;;;17.59;41.73
53550;BME280;67273;52.914;-0.982;2023-04-26T04:42:24;101477.53;;;17.57;41.67
53550;BME280;67273;52.914;-0.982;2023-04-26T04:44:52;101478.38;;;17.58;41.49
53550;BME280;67273;52.914;-0.982;2023-04-26T04:47:20;101489.44;;;17.56;41.68
53550;BME280;67273;52.914;-0.982;2023-04-26T04:49:46;101493.00;;;17.57;41.54
53550;BME280;67273;52.914;-0.982;2023-04-26T04:52:12;101497.59;;;17.56;41.58
53550;BME280;67273;52.914;-0.982;2023-04-26T04:54:38;101490.50;;;17.55;41.59
53550;BME280;67273;52.914;-0.982;2023-04-26T04:57:04;101500.53;;;17.55;41.71
53550;BME280;67273;52.914;-0.982;2023-04-26T04:59:30;101502.41;;;17.54;41.79
53550;BME280;67273;52.914;-0.982;2023-04-26T05:01:57;101511.38;;;17.55;41.70
53550;BME280;67273;52.914;-0.982;2023-04-26T05:04:24;101520.59;;;17.54;41.62
53550;BME280;67273;52.914;-0.982;2023-04-26T05:06:50;101512.66;;;17.52;41.74
53550;BME280;67273;52.914;-0.982;2023-04-26T05:09:16;101499.06;;;17.52;41.72
53550;BME280;67273;52.914;-0.982;2023-04-26T05:11:42;101490.06;;;17.52;41.42
53550;BME280;67273;52.914;-0.982;2023-04-26T05:14:10;101490.91;;;17.52;41.58
53550;BME280;67273;52.914;-0.982;2023-04-26T05:16:36;101494.66;;;17.51;41.63
53550;BME280;67273;52.914;-0.982;2023-04-26T05:19:02;101496.56;;;17.51;41.47
53550;BME280;67273;52.914;-0.982;2023-04-26T05:21:30;101495.75;;;17.50;41.59
53550;BME280;67273;52.914;-0.982;2023-04-26T05:23:56;101492.16;;;17.49;41.52
53550;BME280;67273;52.914;-0.982;2023-04-26T05:26:22;101508.47;;;17.49;41.35
53550;BME280;67273;52.914;-0.982;2023-04-26T05:28:52;101509.94;;;17.52;41.41
53550;BME280;67273;52.914;-0.982;2023-04-26T05:31:37;101506.97;;;17.60;41.48
53550;BME280;67273;52.914;-0.982;2023-04-26T05:34:23;101518.69;;;17.67;41.30
53550;BME280;67273;52.914;-0.982;2023-04-26T05:36:55;101527.25;;;17.78;41.05
53550;BME280;67273;52.914;-0.982;2023-04-26T05:39:21;101524.34;;;17.86;41.32
53550;BME280;67273;52.914;-0.982;2023-04-26T05:41:47;101523.66;;;17.97;41.11
53550;BME280;67273;52.914;-0.982;2023-04-26T05:44:12;101519.66;;;18.07;40.94
53550;BME280;67273;52.914;-0.982;2023-04-26T05:46:42;101518.41;;;18.16;40.69
53550;BME280;67273;52.914;-0.982;2023-04-26T05:49:09;101518.75;;;18.26;40.66
53550;BME280;67273;52.914;-0.982;2023-04-26T05:51:35;101512.03;;;18.35;40.29
53550;BME280;67273;52.914;-0.982;2023-04-26T05:54:02;101505.28;;;18.45;40.24
53550;BME280;67273;52.914;-0.982;2023-04-26T05:56:28;101508.81;;;18.52;40.13
53550;BME280;67273;52.914;-0.982;2023-04-26T05:58:54;101516.09;;;18.58;40.05
53550;BME280;67273;52.914;-0.982;2023-04-26T06:01:20;101516.50;;;18.61;39.99
53550;BME280;67273;52.914;-0.982;2023-04-26T06:03:46;101521.28;;;18.66;40.03
53550;BME280;67273;52.914;-0.982;2023-04-26T06:06:15;101527.97;;;18.70;40.00
53550;BME280;67273;52.914;-0.982;2023-04-26T06:08:41;101515.59;;;18.74;39.97
53550;BME280;67273;52.914;-0.982;2023-04-26T06:11:10;101518.94;;;18.76;39.75
53550;BME280;67273;52.914;-0.982;2023-04-26T06:13:36;101517.44;;;18.80;39.79
53550;BME280;67273;52.914;-0.982;2023-04-26T06:16:02;101513.44;;;18.83;39.82
53550;BME280;67273;52.914;-0.982;2023-04-26T06:18:28;101526.25;;;18.83;39.72
53550;BME280;67273;52.914;-0.982;2023-04-26T06:20:54;101521.41;;;18.85;39.83
53550;BME280;67273;52.914;-0.982;2023-04-26T06:23:20;101523.91;;;18.86;39.67
53550;BME280;67273;52.914;-0.982;2023-04-26T06:25:46;101529.75;;;18.90;39.80
53550;BME280;67273;52.914;-0.982;2023-04-26T06:28:14;101524.31;;;18.90;39.71
53550;BME280;67273;52.914;-0.982;2023-04-26T06:30:41;101531.47;;;18.84;40.89
53550;BME280;67273;52.914;-0.982;2023-04-26T06:33:06;101537.75;;;18.85;40.89
53550;BME280;67273;52.914;-0.982;2023-04-26T06:35:38;101527.25;;;18.88;41.05
53550;BME280;67273;52.914;-0.982;2023-04-26T06:38:04;101526.38;;;18.94;40.93
53550;BME280;67273;52.914;-0.982;2023-04-26T06:40:30;101538.19;;;19.13;41.43
53550;BME280;67273;52.914;-0.982;2023-04-26T06:42:56;101535.72;;;19.05;41.64
53550;BME280;67273;52.914;-0.982;2023-04-26T06:45:52;101541.44;;;19.22;42.65
53550;BME280;67273;52.914;-0.982;2023-04-26T06:48:19;101536.66;;;19.24;42.76
53550;BME280;67273;52.914;-0.982;2023-04-26T06:50:45;101537.03;;;19.28;42.37
53550;BME280;67273;52.914;-0.982;2023-04-26T06:53:10;101545.38;;;19.33;42.92
53550;BME280;67273;52.914;-0.982;2023-04-26T06:55:36;101538.63;;;19.35;42.90
53550;BME280;67273;52.914;-0.982;2023-04-26T06:58:02;101534.00;;;19.36;42.94
53550;BME280;67273;52.914;-0.982;2023-04-26T07:00:27;101532.75;;;19.38;42.96
53550;BME280;67273;52.914;-0.982;2023-04-26T07:02:55;101533.75;;;19.44;42.72
53550;BME280;67273;52.914;-0.982;2023-04-26T07:05:21;101533.06;;;19.49;42.84
53550;BME280;67273;52.914;-0.982;2023-04-26T07:07:47;101528.03;;;19.52;42.68
53550;BME280;67273;52.914;-0.982;2023-04-26T07:10:14;101532.19;;;19.55;42.55
53550;BME280;67273;52.914;-0.982;2023-04-26T07:12:40;101533.38;;;19.59;42.55
53550;BME280;67273;52.914;-0.982;2023-04-26T07:15:07;101535.44;;;19.64;42.43
53550;BME280;67273;52.914;-0.982;2023-04-26T07:17:33;101535.00;;;19.67;42.39
53550;BME280;67273;52.914;-0.982;2023-04-26T07:20:00;101534.16;;;19.66;42.25
53550;BME280;67273;52.914;-0.982;2023-04-26T07:22:26;101533.72;;;19.69;42.20
53550;BME280;67273;52.914;-0.982;2023-04-26T07:24:52;101535.59;;;19.75;42.13
53550;BME280;67273;52.914;-0.982;2023-04-26T07:27:17;101526.09;;;19.78;42.01
53550;BME280;67273;52.914;-0.982;2023-04-26T07:29:43;101523.38;;;19.78;42.13
53550;BME280;67273;52.914;-0.982;2023-04-26T07:32:09;101532.38;;;19.79;41.83
53550;BME280;67273;52.914;-0.982;2023-04-26T07:34:35;101533.09;;;19.74;41.67
53550;BME280;67273;52.914;-0.982;2023-04-26T07:37:02;101528.63;;;19.73;41.55
53550;BME280;67273;52.914;-0.982;2023-04-26T07:39:29;101530.75;;;19.71;41.47
53550;BME280;67273;52.914;-0.982;2023-04-26T07:41:54;101534.53;;;19.70;41.09
53550;BME280;67273;52.914;-0.982;2023-04-26T07:44:20;101536.22;;;19.71;41.02
53550;BME280;67273;52.914;-0.982;2023-04-26T07:46:46;101529.94;;;19.70;40.84
53550;BME280;67273;52.914;-0.982;2023-04-26T07:49:12;101526.13;;;19.71;40.66
53550;BME280;67273;52.914;-0.982;2023-04-26T07:51:38;101526.13;;;19.71;40.62
53550;BME280;67273;52.914;-0.982;2023-04-26T07:54:05;101525.31;;;19.71;40.70
53550;BME280;67273;52.914;-0.982;2023-04-26T07:56:31;101525.97;;;19.66;40.80
53550;BME280;67273;52.914;-0.982;2023-04-26T07:58:57;101537.69;;;19.48;41.64
53550;BME280;67273;52.914;-0.982;2023-04-26T08:01:23;101527.69;;;19.42;43.17
53550;BME280;67273;52.914;-0.982;2023-04-26T08:03:48;101527.72;;;19.61;43.34
53550;BME280;67273;52.914;-0.982;2023-04-26T08:06:14;101527.22;;;19.70;42.84
53550;BME280;67273;52.914;-0.982;2023-04-26T08:08:40;101530.75;;;19.78;42.06
53550;BME280;67273;52.914;-0.982;2023-04-26T08:11:11;101525.19;;;19.84;41.99
53550;BME280;67273;52.914;-0.982;2023-04-26T08:13:36;101524.69;;;19.94;42.01
53550;BME280;67273;52.914;-0.982;2023-04-26T08:16:03;101524.63;;;20.01;42.05
53550;BME280;67273;52.914;-0.982;2023-04-26T08:18:28;101522.72;;;20.01;42.16
53550;BME280;67273;52.914;-0.982;2023-04-26T08:20:54;101523.16;;;19.98;42.42
53550;BME280;67273;52.914;-0.982;2023-04-26T08:23:20;101524.22;;;19.97;42.53
53550;BME280;67273;52.914;-0.982;2023-04-26T08:25:45;101520.44;;;19.98;42.30
53550;BME280;67273;52.914;-0.982;2023-04-26T08:28:12;101519.16;;;20.01;42.34
53550;BME280;67273;52.914;-0.982;2023-04-26T08:30:39;101518.69;;;20.04;42.22
53550;BME280;67273;52.914;-0.982;2023-04-26T08:33:07;101522.03;;;20.06;42.39
53550;BME280;67273;52.914;-0.982;2023-04-26T08:35:33;101522.66;;;20.08;42.40
53550;BME280;67273;52.914;-0.982;2023-04-26T08:37:59;101521.56;;;20.09;42.30
53550;BME280;67273;52.914;-0.982;2023-04-26T08:40:25;101524.28;;;20.09;42.37
53550;BME280;67273;52.914;-0.982;2023-04-26T08:42:51;101523.84;;;20.12;42.18
53550;BME280;67273;52.914;-0.982;2023-04-26T08:45:20;101522.78;;;20.13;42.05
53550;BME280;67273;52.914;-0.982;2023-04-26T08:47:48;101520.66;;;20.15;42.12
53550;BME280;67273;52.914;-0.982;2023-04-26T08:50:16;101518.63;;;20.10;42.26
53550;BME280;67273;52.914;-0.982;2023-04-26T08:52:43;101518.00;;;20.08;42.10
53550;BME280;67273;52.914;-0.982;2023-04-26T08:55:10;101524.78;;;20.06;41.99
53550;BME280;67273;52.914;-0.982;2023-04-26T08:57:38;101519.97;;;20.01;41.84
53550;BME280;67273;52.914;-0.982;2023-04-26T09:00:06;101519.06;;;20.07;41.83
53550;BME280;67273;52.914;-0.982;2023-04-26T09:02:39;101527.41;;;20.12;41.99
53550;BME280;67273;52.914;-0.982;2023-04-26T09:05:06;101520.66;;;20.15;42.07
53550;BME280;67273;52.914;-0.982;2023-04-26T09:07:39;101512.47;;;20.15;42.03
53550;BME280;67273;52.914;-0.982;2023-04-26T09:10:06;101520.22;;;20.18;42.08
53550;BME280;67273;52.914;-0.982;2023-04-26T09:12:32;101516.41;;;20.19;41.93
53550;BME280;67273;52.914;-0.982;2023-04-26T09:14:58;101508.81;;;20.21;41.93
53550;BME280;67273;52.914;-0.982;2023-04-26T09:17:26;101503.38;;;20.21;41.94
53550;BME280;67273;52.914;-0.982;2023-04-26T09:19:54;101509.69;;;20.22;41.81
53550;BME280;67273;52.914;-0.982;2023-04-26T09:22:30;101506.69;;;20.23;41.83
53550;BME280;67273;52.914;-0.982;2023-04-26T09:24:56;101509.31;;;20.18;42.06
53550;BME280;67273;52.914;-0.982;2023-04-26T09:27:21;101513.53;;;20.14;42.07
53550;BME280;67273;52.914;-0.982;2023-04-26T09:29:57;101507.19;;;19.83;44.11
53550;BME280;67273;52.914;-0.982;2023-04-26T09:32:24;101512.47;;;19.97;43.94
53550;BME280;67273;52.914;-0.982;2023-04-26T09:34:50;101512.34;;;20.10;44.50
53550;BME280;67273;52.914;-0.982;2023-04-26T09:37:17;101519.59;;;20.16;44.58
53550;BME280;67273;52.914;-0.982;2023-04-26T09:39:43;101510.94;;;20.19;44.52
53550;BME280;67273;52.914;-0.982;2023-04-26T09:42:10;101510.50;;;20.22;44.50
53550;BME280;67273;52.914;-0.982;2023-04-26T09:44:36;101511.31;;;20.23;44.45
53550;BME280;67273;52.914;-0.982;2023-04-26T09:47:04;101519.28;;;20.24;44.25
53550;BME280;67273;52.914;-0.982;2023-04-26T09:49:31;101514.88;;;20.23;44.19
53550;BME280;67273;52.914;-0.982;2023-04-26T09:52:01;101508.38;;;20.24;44.17
53550;BME280;67273;52.914;-0.982;2023-04-26T09:54:40;101507.06;;;20.27;44.00
53550;BME280;67273;52.914;-0.982;2023-04-26T09:57:06;101503.50;;;20.26;43.94
53550;BME280;67273;52.914;-0.982;2023-04-26T09:59:39;101510.44;;;20.29;44.08
53550;BME280;67273;52.914;-0.982;2023-04-26T10:02:11;101508.53;;;20.29;44.06
53550;BME280;67273;52.914;-0.982;2023-04-26T10:04:38;101505.56;;;20.31;43.87
53550;BME280;67273;52.914;-0.982;2023-04-26T10:07:04;101509.94;;;20.32;43.92
53550;BME280;67273;52.914;-0.982;2023-04-26T10:09:31;101511.63;;;20.33;43.82
53550;BME280;67273;52.914;-0.982;2023-04-26T10:11:59;101511.41;;;20.35;43.76
53550;BME280;67273;52.914;-0.982;2023-04-26T10:14:25;101508.66;;;20.35;43.64
53550;BME280;67273;52.914;-0.982;2023-04-26T10:16:53;101503.22;;;20.35;43.66
53550;BME280;67273;52.914;-0.982;2023-04-26T10:19:20;101499.41;;;20.36;43.51
53550;BME280;67273;52.914;-0.982;2023-04-26T10:21:47;101508.22;;;20.38;43.56
53550;BME280;67273;52.914;-0.982;2023-04-26T10:24:14;101502.75;;;20.38;43.40
53550;BME280;67273;52.914;-0.982;2023-04-26T10:26:47;101505.50;;;20.38;43.51
53550;BME280;67273;52.914;-0.982;2023-04-26T10:29:24;101502.75;;;20.38;43.45
53550;BME280;67273;52.914;-0.982;2023-04-26T10:32:07;101507.38;;;20.37;43.36
53550;BME280;67273;52.914;-0.982;2023-04-26T10:34:34;101498.94;;;20.39;43.46
53550;BME280;67273;52.914;-0.982;2023-04-26T10:37:07;101498.94;;;20.39;43.20
53550;BME280;67273;52.914;-0.982;2023-04-26T10:39:33;101500.63;;;20.40;43.35
53550;BME280;67273;52.914;-0.982;2023-04-26T10:42:20;101486.09;;;20.27;42.96
53550;BME280;67273;52.914;-0.982;2023-04-26T10:44:50;101490.69;;;20.27;43.68
53550;BME280;67273;52.914;-0.982;2023-04-26T10:47:25;101493.94;;;20.36;43.61
53550;BME280;67273;52.914;-0.982;2023-04-26T10:49:51;101488.03;;;20.39;43.64
53550;BME280;67273;52.914;-0.982;2023-04-26T10:52:18;101494.69;;;20.43;43.56
53550;BME280;67273;52.914;-0.982;2023-04-26T10:54:57;101484.84;;;20.42;43.15
53550;BME280;67273;52.914;-0.982;2023-04-26T10:57:47;101481.91;;;20.25;41.67
53550;BME280;67273;52.914;-0.982;2023-04-26T11:00:33;101480.88;;;19.70;40.76
53550;BME280;67273;52.914;-0.982;2023-04-26T11:03:04;101478.16;;;19.89;42.49
53550;BME280;67273;52.914;-0.982;2023-04-26T11:05:52;101480.03;;;20.07;42.23
53550;BME280;67273;52.914;-0.982;2023-04-26T11:08:20;101481.88;;;20.13;41.91
53550;BME280;67273;52.914;-0.982;2023-04-26T11:10:51;101466.94;;;20.16;41.92
53550;BME280;67273;52.914;-0.982;2023-04-26T11:13:17;101474.28;;;20.15;41.86
53550;BME280;67273;52.914;-0.982;2023-04-26T11:15:51;101469.88;;;20.14;41.80
53550;BME280;67273;52.914;-0.982;2023-04-26T11:18:18;101465.25;;;20.14;41.81
53550;BME280;67273;52.914;-0.982;2023-04-26T11:20:44;101463.59;;;20.13;41.56
53550;BME280;67273;52.914;-0.982;2023-04-26T11:23:10;101465.50;;;20.13;41.57
53550;BME280;67273;52.914;-0.982;2023-04-26T11:25:38;101454.81;;;20.11;41.61
53550;BME280;67273;52.914;-0.982;2023-04-26T11:28:04;101461.09;;;20.12;41.50
53550;BME280;67273;52.914;-0.982;2023-04-26T11:30:31;101463.81;;;20.12;41.32
53550;BME280;67273;52.914;-0.982;2023-04-26T11:32:59;101457.78;;;20.10;41.41
53550;BME280;67273;52.914;-0.982;2023-04-26T11:35:25;101456.94;;;20.09;41.17
53550;BME280;67273;52.914;-0.982;2023-04-26T11:37:57;101458.81;;;20.09;41.21
53550;BME280;67273;52.914;-0.982;2023-04-26T11:40:23;101461.91;;;20.12;41.46
53550;BME280;67273;52.914;-0.982;2023-04-26T11:42:51;101457.56;;;20.23;41.17
53550;BME280;67273;52.914;-0.982;2023-04-26T11:45:17;101460.22;;;20.30;41.31
53550;BME280;67273;52.914;-0.982;2023-04-26T11:47:43;101458.94;;;20.32;41.25
53550;BME280;67273;52.914;-0.982;2023-04-26T11:50:11;101454.75;;;20.18;42.23
53550;BME280;67273;52.914;-0.982;2023-04-26T11:52:37;101460.50;;;20.10;43.70
53550;BME280;67273;52.914;-0.982;2023-04-26T11:55:04;101461.41;;;20.34;44.09
53550;BME280;67273;52.914;-0.982;2023-04-26T11:57:31;101461.34;;;20.41;43.71
53550;BME280;67273;52.914;-0.982;2023-04-26T12:00:08;101455.06;;;20.40;43.74
53550;BME280;67273;52.914;-0.982;2023-04-26T12:02:42;101454.81;;;20.42;43.55
53550;BME280;67273;52.914;-0.982;2023-04-26T12:05:08;101458.59;;;20.41;43.46
53550;BME280;67273;52.914;-0.982;2023-04-26T12:07:36;101451.00;;;20.43;43.39
53550;BME280;67273;52.914;-0.982;2023-04-26T12:10:15;101442.59;;;20.44;43.25
53550;BME280;67273;52.914;-0.982;2023-04-26T12:12:43;101445.09;;;20.46;43.13
53550;BME280;67273;52.914;-0.982;2023-04-26T12:15:10;101448.41;;;20.48;42.94
53550;BME280;67273;52.914;-0.982;2023-04-26T12:17:36;101442.50;;;20.51;42.85
53550;BME280;67273;52.914;-0.982;2023-04-26T12:20:08;101443.09;;;20.53;42.78
53550;BME280;67273;52.914;-0.982;2023-04-26T12:22:35;101445.38;;;20.56;42.67
53550;BME280;67273;52.914;-0.982;2023-04-26T12:25:05;101449.16;;;20.55;42.89
53550;BME280;67273;52.914;-0.982;2023-04-26T12:27:32;101449.81;;;20.39;43.26
53550;BME280;67273;52.914;-0.982;2023-04-26T12:29:58;101440.00;;;20.49;43.29
53550;BME280;67273;52.914;-0.982;2023-04-26T12:32:24;101445.59;;;20.55;43.35
53550;BME280;67273;52.914;-0.982;2023-04-26T12:34:50;101449.28;;;20.60;43.34
53550;BME280;67273;52.914;-0.982;2023-04-26T12:37:15;101446.13;;;20.63;43.18
53550;BME280;67273;52.914;-0.982;2023-04-26T12:39:42;101442.72;;;20.68;42.90
53550;BME280;67273;52.914;-0.982;2023-04-26T12:42:08;101450.91;;;20.68;42.95
53550;BME280;67273;52.914;-0.982;2023-04-26T12:44:34;101447.31;;;20.67;42.96